sensor_id;sensor_type;location;lat;lon;timestamp;P1;durP1;ratioP1;P2;durP2;ratioP2
40074;SDS011;26529;51.530;11.754;2022-12-18T00:01:19;17.95;;;12.70;;
40074;SDS011;26529;51.530;11.754;2022-12-18T00:03:47;18.80;;;12.73;;
40074;SDS011;26529;51.530;11.754;2022-12-18T00:06:13;19.85;;;12.95;;
40074;SDS011;26529;51.530;11.754;2022-12-18T00:08:43;17.27;;;12.60;;
40074;SDS011;26529;51.530;11.754;2022-12-18T00:11:13;17.85;;;12.98;;
40074;SDS011;26529;51.530;11.754;2022-12-18T00:13:41;17.25;;;12.18;;
40074;SDS011;26529;51.530;11.754;2022-12-18T00:16:09;16.42;;;12.20;;
40074;SDS011;26529;51.530;11.754;2022-12-18T00:18:37;17.20;;;12.63;;
40074;SDS011;26529;51.530;11.754;2022-12-18T00:21:04;19.67;;;12.38;;
40074;SDS011;26529;51.530;11.754;2022-12-18T00:23:31;19.02;;;13.10;;
40074;SDS011;26529;51.530;11.754;2022-12-18T00:26:01;19.52;;;13.02;;
40074;SDS011;26529;51.530;11.754;2022-12-18T00:28:30;17.95;;;12.27;;
40074;SDS011;26529;51.530;11.754;2022-12-18T00:31:02;18.40;;;12.50;;
40074;SDS011;26529;51.530;11.754;2022-12-18T00:33:30;17.48;;;12.77;;
40074;SDS011;26529;51.530;11.754;2022-12-18T00:36:03;19.30;;;12.07;;
40074;SDS011;26529;51.530;11.754;2022-12-18T00:38:31;20.10;;;13.30;;
40074;SDS011;26529;51.530;11.754;2022-12-18T00:40:58;19.17;;;12.48;;
40074;SDS011;26529;51.530;11.754;2022-12-18T00:43:24;18.23;;;11.85;;
40074;SDS011;26529;51.530;11.754;2022-12-18T00:45:50;19.13;;;12.80;;
40074;SDS011;26529;51.530;11.754;2022-12-18T00:48:16;17.33;;;12.13;;
40074;SDS011;26529;51.530;11.754;2022-12-18T00:50:41;18.50;;;13.15;;
40074;SDS011;26529;51.530;11.754;2022-12-18T00:53:07;18.08;;;11.98;;
40074;SDS011;26529;51.530;11.754;2022-12-18T00:55:39;17.20;;;11.68;;
40074;SDS011;26529;51.530;11.754;2022-12-18T00:58:07;18.35;;;12.68;;
40074;SDS011;26529;51.530;11.754;2022-12-18T01:00:34;14.98;;;11.05;;
40074;SDS011;26529;51.530;11.754;2022-12-18T01:03:01;16.27;;;12.25;;
40074;SDS011;26529;51.530;11.754;2022-12-18T01:05:27;17.98;;;12.52;;
40074;SDS011;26529;51.530;11.754;2022-12-18T01:07:52;16.98;;;12.25;;
40074;SDS011;26529;51.530;11.754;2022-12-18T01:10:18;16.33;;;11.43;;
40074;SDS011;26529;51.530;11.754;2022-12-18T01:12:44;16.45;;;11.48;;
40074;SDS011;26529;51.530;11.754;2022-12-18T01:15:11;17.52;;;11.57;;
40074;SDS011;26529;51.530;11.754;2022-12-18T01:17:38;13.40;;;10.82;;
40074;SDS011;26529;51.530;11.754;2022-12-18T01:20:04;18.15;;;12.05;;
40074;SDS011;26529;51.530;11.754;2022-12-18T01:22:31;16.90;;;11.88;;
40074;SDS011;26529;51.530;11.754;2022-12-18T01:24:59;16.52;;;12.07;;
40074;SDS011;26529;51.530;11.754;2022-12-18T01:27:24;14.82;;;11.00;;
40074;SDS011;26529;51.530;11.754;2022-12-18T01:29:50;17.20;;;11.80;;
40074;SDS011;26529;51.530;11.754;2022-12-18T01:32:18;19.17;;;11.57;;
40074;SDS011;26529;51.530;11.754;2022-12-18T01:34:44;16.88;;;11.95;;
40074;SDS011;26529;51.530;11.754;2022-12-18T01:37:09;15.30;;;11.27;;
40074;SDS011;26529;51.530;11.754;2022-12-18T01:39:35;16.45;;;11.40;;
40074;SDS011;26529;51.530;11.754;2022-12-18T01:42:08;15.93;;;11.52;;
40074;SDS011;26529;51.530;11.754;2022-12-18T01:47:41;16.83;;;12.02;;
40074;SDS011;26529;51.530;11.754;2022-12-18T01:52:46;14.68;;;10.60;;
40074;SDS011;26529;51.530;11.754;2022-12-18T01:55:14;14.60;;;10.80;;
40074;SDS011;26529;51.530;11.754;2022-12-18T01:57:43;15.75;;;11.13;;
40074;SDS011;26529;51.530;11.754;2022-12-18T02:00:11;15.60;;;11.02;;
40074;SDS011;26529;51.530;11.754;2022-12-18T02:02:43;15.57;;;11.32;;
40074;SDS011;26529;51.530;11.754;2022-12-18T02:05:09;14.57;;;10.50;;
40074;SDS011;26529;51.530;11.754;2022-12-18T02:10:29;14.30;;;10.85;;
40074;SDS011;26529;51.530;11.754;2022-12-18T02:18:27;15.63;;;10.38;;
40074;SDS011;26529;51.530;11.754;2022-12-18T02:23:47;16.52;;;10.98;;
40074;SDS011;26529;51.530;11.754;2022-12-18T02:26:30;15.07;;;10.57;;
40074;SDS011;26529;51.530;11.754;2022-12-18T02:29:04;15.45;;;10.20;;
40074;SDS011;26529;51.530;11.754;2022-12-18T02:31:42;14.60;;;10.07;;
40074;SDS011;26529;51.530;11.754;2022-12-18T02:34:15;12.60;;;9.82;;
40074;SDS011;26529;51.530;11.754;2022-12-18T02:36:45;13.05;;;10.10;;
40074;SDS011;26529;51.530;11.754;2022-12-18T02:39:13;14.13;;;10.93;;
40074;SDS011;26529;51.530;11.754;2022-12-18T02:41:51;15.18;;;10.60;;
40074;SDS011;26529;51.530;11.754;2022-12-18T02:44:18;13.52;;;10.27;;
40074;SDS011;26529;51.530;11.754;2022-12-18T02:46:49;14.88;;;11.00;;
40074;SDS011;26529;51.530;11.754;2022-12-18T02:52:01;13.95;;;10.07;;
40074;SDS011;26529;51.530;11.754;2022-12-18T02:54:57;13.68;;;9.85;;
40074;SDS011;26529;51.530;11.754;2022-12-18T02:58:02;13.43;;;10.07;;
40074;SDS011;26529;51.530;11.754;2022-12-18T03:00:48;13.30;;;9.70;;
40074;SDS011;26529;51.530;11.754;2022-12-18T03:06:02;13.30;;;9.85;;
40074;SDS011;26529;51.530;11.754;2022-12-18T03:08:34;13.63;;;10.07;;
40074;SDS011;26529;51.530;11.754;2022-12-18T03:11:05;12.35;;;9.80;;
40074;SDS011;26529;51.530;11.754;2022-12-18T03:13:35;11.25;;;8.63;;
40074;SDS011;26529;51.530;11.754;2022-12-18T03:16:07;12.18;;;9.57;;
40074;SDS011;26529;51.530;11.754;2022-12-18T03:18:45;11.93;;;8.93;;
40074;SDS011;26529;51.530;11.754;2022-12-18T03:21:15;13.02;;;9.75;;
40074;SDS011;26529;51.530;11.754;2022-12-18T03:23:44;11.40;;;9.10;;
40074;SDS011;26529;51.530;11.754;2022-12-18T03:26:19;14.30;;;9.48;;
40074;SDS011;26529;51.530;11.754;2022-12-18T03:28:55;13.93;;;10.05;;
40074;SDS011;26529;51.530;11.754;2022-12-18T03:31:27;13.40;;;9.40;;
40074;SDS011;26529;51.530;11.754;2022-12-18T03:33:55;12.20;;;8.73;;
40074;SDS011;26529;51.530;11.754;2022-12-18T03:36:32;11.25;;;9.20;;
40074;SDS011;26529;51.530;11.754;2022-12-18T03:38:57;12.27;;;9.27;;
40074;SDS011;26529;51.530;11.754;2022-12-18T03:44:20;11.50;;;8.95;;
40074;SDS011;26529;51.530;11.754;2022-12-18T03:47:09;11.60;;;8.90;;
40074;SDS011;26529;51.530;11.754;2022-12-18T03:52:17;11.55;;;9.23;;
40074;SDS011;26529;51.530;11.754;2022-12-18T03:54:52;11.45;;;9.05;;
40074;SDS011;26529;51.530;11.754;2022-12-18T03:57:21;11.90;;;8.63;;
40074;SDS011;26529;51.530;11.754;2022-12-18T03:59:54;11.38;;;8.85;;
40074;SDS011;26529;51.530;11.754;2022-12-18T04:02:26;12.32;;;9.02;;
40074;SDS011;26529;51.530;11.754;2022-12-18T04:04:55;11.80;;;8.82;;
40074;SDS011;26529;51.530;11.754;2022-12-18T04:07:24;10.80;;;8.43;;
40074;SDS011;26529;51.530;11.754;2022-12-18T04:09:51;10.93;;;8.35;;
40074;SDS011;26529;51.530;11.754;2022-12-18T04:12:25;11.05;;;8.55;;
40074;SDS011;26529;51.530;11.754;2022-12-18T04:14:52;12.02;;;9.20;;
40074;SDS011;26529;51.530;11.754;2022-12-18T04:17:17;11.38;;;8.68;;
40074;SDS011;26529;51.530;11.754;2022-12-18T04:19:43;9.65;;;7.88;;
40074;SDS011;26529;51.530;11.754;2022-12-18T04:22:10;10.30;;;8.38;;
40074;SDS011;26529;51.530;11.754;2022-12-18T04:24:40;11.05;;;8.27;;
40074;SDS011;26529;51.530;11.754;2022-12-18T04:27:35;9.27;;;6.70;;
40074;SDS011;26529;51.530;11.754;2022-12-18T04:30:03;9.43;;;7.75;;
40074;SDS011;26529;51.530;11.754;2022-12-18T04:32:29;10.07;;;7.90;;
40074;SDS011;26529;51.530;11.754;2022-12-18T04:34:55;10.88;;;8.23;;
40074;SDS011;26529;51.530;11.754;2022-12-18T04:37:21;9.98;;;7.95;;
40074;SDS011;26529;51.530;11.754;2022-12-18T04:39:48;9.80;;;7.43;;
40074;SDS011;26529;51.530;11.754;2022-12-18T04:42:21;9.85;;;7.75;;
40074;SDS011;26529;51.530;11.754;2022-12-18T04:44:47;11.52;;;7.90;;
40074;SDS011;26529;51.530;11.754;2022-12-18T04:47:12;11.50;;;8.25;;
40074;SDS011;26529;51.530;11.754;2022-12-18T04:49:38;9.57;;;8.23;;
40074;SDS011;26529;51.530;11.754;2022-12-18T04:52:03;11.02;;;9.00;;
40074;SDS011;26529;51.530;11.754;2022-12-18T04:54:29;9.88;;;7.15;;
40074;SDS011;26529;51.530;11.754;2022-12-18T04:56:54;9.13;;;7.40;;
40074;SDS011;26529;51.530;11.754;2022-12-18T04:59:20;10.35;;;7.45;;
40074;SDS011;26529;51.530;11.754;2022-12-18T05:01:45;9.05;;;7.55;;
40074;SDS011;26529;51.530;11.754;2022-12-18T05:04:11;9.25;;;7.53;;
40074;SDS011;26529;51.530;11.754;2022-12-18T05:06:36;9.90;;;7.43;;
40074;SDS011;26529;51.530;11.754;2022-12-18T05:09:02;8.70;;;7.00;;
40074;SDS011;26529;51.530;11.754;2022-12-18T05:11:28;9.80;;;7.43;;
40074;SDS011;26529;51.530;11.754;2022-12-18T05:13:53;9.68;;;7.18;;
40074;SDS011;26529;51.530;11.754;2022-12-18T05:16:19;10.80;;;7.75;;
40074;SDS011;26529;51.530;11.754;2022-12-18T05:18:44;8.35;;;7.07;;
40074;SDS011;26529;51.530;11.754;2022-12-18T05:21:10;9.40;;;7.55;;
40074;SDS011;26529;51.530;11.754;2022-12-18T05:23:35;8.80;;;7.18;;
40074;SDS011;26529;51.530;11.754;2022-12-18T05:26:02;9.15;;;6.80;;
40074;SDS011;26529;51.530;11.754;2022-12-18T05:28:30;9.07;;;6.70;;
40074;SDS011;26529;51.530;11.754;2022-12-18T05:30:58;10.05;;;7.70;;
40074;SDS011;26529;51.530;11.754;2022-12-18T05:33:26;7.30;;;6.47;;
40074;SDS011;26529;51.530;11.754;2022-12-18T05:35:54;8.70;;;7.13;;
40074;SDS011;26529;51.530;11.754;2022-12-18T05:38:22;10.48;;;7.30;;
40074;SDS011;26529;51.530;11.754;2022-12-18T05:40:49;8.57;;;7.18;;
40074;SDS011;26529;51.530;11.754;2022-12-18T05:43:16;9.40;;;7.35;;
40074;SDS011;26529;51.530;11.754;2022-12-18T05:45:42;9.80;;;7.20;;
40074;SDS011;26529;51.530;11.754;2022-12-18T05:48:07;8.18;;;6.38;;
40074;SDS011;26529;51.530;11.754;2022-12-18T05:50:35;9.13;;;6.97;;
40074;SDS011;26529;51.530;11.754;2022-12-18T05:53:01;9.77;;;6.70;;
40074;SDS011;26529;51.530;11.754;2022-12-18T05:55:28;9.82;;;7.25;;
40074;SDS011;26529;51.530;11.754;2022-12-18T05:57:53;8.68;;;6.55;;
40074;SDS011;26529;51.530;11.754;2022-12-18T06:00:19;8.05;;;6.82;;
40074;SDS011;26529;51.530;11.754;2022-12-18T06:02:47;8.20;;;6.60;;
40074;SDS011;26529;51.530;11.754;2022-12-18T06:05:13;8.45;;;6.68;;
40074;SDS011;26529;51.530;11.754;2022-12-18T06:07:39;8.55;;;6.75;;
40074;SDS011;26529;51.530;11.754;2022-12-18T06:10:05;9.43;;;7.00;;
40074;SDS011;26529;51.530;11.754;2022-12-18T06:12:31;8.40;;;6.72;;
40074;SDS011;26529;51.530;11.754;2022-12-18T06:14:59;7.88;;;6.72;;
40074;SDS011;26529;51.530;11.754;2022-12-18T06:17:28;7.93;;;6.63;;
40074;SDS011;26529;51.530;11.754;2022-12-18T06:19:54;8.07;;;6.72;;
40074;SDS011;26529;51.530;11.754;2022-12-18T06:22:20;8.77;;;6.70;;
40074;SDS011;26529;51.530;11.754;2022-12-18T06:24:45;8.35;;;6.85;;
40074;SDS011;26529;51.530;11.754;2022-12-18T06:27:11;8.73;;;6.55;;
40074;SDS011;26529;51.530;11.754;2022-12-18T06:29:36;7.30;;;6.22;;
40074;SDS011;26529;51.530;11.754;2022-12-18T06:32:02;9.65;;;6.82;;
40074;SDS011;26529;51.530;11.754;2022-12-18T06:34:27;7.38;;;6.15;;
40074;SDS011;26529;51.530;11.754;2022-12-18T06:36:56;8.02;;;6.40;;
40074;SDS011;26529;51.530;11.754;2022-12-18T06:39:21;9.18;;;6.25;;
40074;SDS011;26529;51.530;11.754;2022-12-18T06:41:47;8.20;;;6.82;;
40074;SDS011;26529;51.530;11.754;2022-12-18T06:44:12;7.55;;;5.97;;
40074;SDS011;26529;51.530;11.754;2022-12-18T06:46:38;6.53;;;5.50;;
40074;SDS011;26529;51.530;11.754;2022-12-18T06:49:03;7.57;;;5.85;;
40074;SDS011;26529;51.530;11.754;2022-12-18T06:51:29;7.53;;;6.22;;
40074;SDS011;26529;51.530;11.754;2022-12-18T06:53:55;8.00;;;6.45;;
40074;SDS011;26529;51.530;11.754;2022-12-18T06:56:20;7.90;;;6.15;;
40074;SDS011;26529;51.530;11.754;2022-12-18T06:58:46;7.07;;;5.40;;
40074;SDS011;26529;51.530;11.754;2022-12-18T07:01:12;8.27;;;6.53;;
40074;SDS011;26529;51.530;11.754;2022-12-18T07:03:38;8.85;;;6.47;;
40074;SDS011;26529;51.530;11.754;2022-12-18T07:06:05;6.90;;;6.10;;
40074;SDS011;26529;51.530;11.754;2022-12-18T07:08:31;7.78;;;6.35;;
40074;SDS011;26529;51.530;11.754;2022-12-18T07:10:57;7.43;;;5.45;;
40074;SDS011;26529;51.530;11.754;2022-12-18T07:13:23;6.57;;;5.90;;
40074;SDS011;26529;51.530;11.754;2022-12-18T07:15:48;7.47;;;5.88;;
40074;SDS011;26529;51.530;11.754;2022-12-18T07:18:14;7.10;;;6.00;;
40074;SDS011;26529;51.530;11.754;2022-12-18T07:20:40;6.25;;;5.40;;
40074;SDS011;26529;51.530;11.754;2022-12-18T07:23:05;7.75;;;5.88;;
40074;SDS011;26529;51.530;11.754;2022-12-18T07:25:34;7.28;;;6.03;;
40074;SDS011;26529;51.530;11.754;2022-12-18T07:28:00;7.28;;;5.90;;
40074;SDS011;26529;51.530;11.754;2022-12-18T07:30:26;6.53;;;5.57;;
40074;SDS011;26529;51.530;11.754;2022-12-18T07:32:51;7.60;;;6.10;;
40074;SDS011;26529;51.530;11.754;2022-12-18T07:35:17;6.82;;;5.85;;
40074;SDS011;26529;51.530;11.754;2022-12-18T07:37:42;7.78;;;5.50;;
40074;SDS011;26529;51.530;11.754;2022-12-18T07:40:08;7.80;;;6.00;;
40074;SDS011;26529;51.530;11.754;2022-12-18T07:42:34;7.00;;;5.88;;
40074;SDS011;26529;51.530;11.754;2022-12-18T07:45:00;7.38;;;5.40;;
40074;SDS011;26529;51.530;11.754;2022-12-18T07:47:27;9.38;;;5.90;;
40074;SDS011;26529;51.530;11.754;2022-12-18T07:49:53;7.15;;;5.82;;
40074;SDS011;26529;51.530;11.754;2022-12-18T07:52:19;6.32;;;5.22;;
40074;SDS011;26529;51.530;11.754;2022-12-18T07:54:45;6.80;;;5.85;;
40074;SDS011;26529;51.530;11.754;2022-12-18T07:57:10;9.10;;;6.35;;
40074;SDS011;26529;51.530;11.754;2022-12-18T07:59:36;7.60;;;5.35;;
40074;SDS011;26529;51.530;11.754;2022-12-18T08:02:02;7.00;;;5.70;;
40074;SDS011;26529;51.530;11.754;2022-12-18T08:04:28;6.85;;;5.50;;
40074;SDS011;26529;51.530;11.754;2022-12-18T08:06:53;8.25;;;5.90;;
40074;SDS011;26529;51.530;11.754;2022-12-18T08:09:19;7.25;;;5.18;;
40074;SDS011;26529;51.530;11.754;2022-12-18T08:11:45;8.02;;;5.93;;
40074;SDS011;26529;51.530;11.754;2022-12-18T08:14:10;6.38;;;5.30;;
40074;SDS011;26529;51.530;11.754;2022-12-18T08:16:36;5.82;;;5.18;;
40074;SDS011;26529;51.530;11.754;2022-12-18T08:19:01;6.15;;;5.35;;
40074;SDS011;26529;51.530;11.754;2022-12-18T08:21:28;6.28;;;5.68;;
40074;SDS011;26529;51.530;11.754;2022-12-18T08:23:56;6.38;;;5.18;;
40074;SDS011;26529;51.530;11.754;2022-12-18T08:26:25;6.00;;;5.28;;
40074;SDS011;26529;51.530;11.754;2022-12-18T08:28:53;9.20;;;5.78;;
40074;SDS011;26529;51.530;11.754;2022-12-18T08:31:19;6.60;;;5.55;;
40074;SDS011;26529;51.530;11.754;2022-12-18T08:33:45;6.97;;;5.57;;
40074;SDS011;26529;51.530;11.754;2022-12-18T08:36:14;6.32;;;5.30;;
40074;SDS011;26529;51.530;11.754;2022-12-18T08:38:40;6.55;;;5.57;;
40074;SDS011;26529;51.530;11.754;2022-12-18T08:41:06;6.47;;;5.45;;
40074;SDS011;26529;51.530;11.754;2022-12-18T08:43:34;7.40;;;5.53;;
40074;SDS011;26529;51.530;11.754;2022-12-18T08:46:19;7.70;;;5.18;;
40074;SDS011;26529;51.530;11.754;2022-12-18T08:48:46;6.72;;;5.55;;
40074;SDS011;26529;51.530;11.754;2022-12-18T08:51:11;7.15;;;5.53;;
40074;SDS011;26529;51.530;11.754;2022-12-18T08:53:37;6.72;;;5.43;;
40074;SDS011;26529;51.530;11.754;2022-12-18T08:56:04;5.90;;;5.30;;
40074;SDS011;26529;51.530;11.754;2022-12-18T08:58:30;6.93;;;5.47;;
40074;SDS011;26529;51.530;11.754;2022-12-18T09:01:02;8.00;;;4.88;;
40074;SDS011;26529;51.530;11.754;2022-12-18T09:03:28;7.28;;;5.65;;
40074;SDS011;26529;51.530;11.754;2022-12-18T09:05:54;7.10;;;5.95;;
40074;SDS011;26529;51.530;11.754;2022-12-18T09:08:19;6.28;;;5.35;;
40074;SDS011;26529;51.530;11.754;2022-12-18T09:10:48;9.43;;;6.70;;
40074;SDS011;26529;51.530;11.754;2022-12-18T09:13:15;7.93;;;5.70;;
40074;SDS011;26529;51.530;11.754;2022-12-18T09:15:41;9.02;;;6.03;;
40074;SDS011;26529;51.530;11.754;2022-12-18T09:18:08;7.93;;;5.85;;
40074;SDS011;26529;51.530;11.754;2022-12-18T09:20:35;8.55;;;6.07;;
40074;SDS011;26529;51.530;11.754;2022-12-18T09:23:01;7.40;;;6.32;;
40074;SDS011;26529;51.530;11.754;2022-12-18T09:25:28;7.47;;;5.75;;
40074;SDS011;26529;51.530;11.754;2022-12-18T09:27:58;8.63;;;6.13;;
40074;SDS011;26529;51.530;11.754;2022-12-18T09:30:25;7.50;;;5.78;;
40074;SDS011;26529;51.530;11.754;2022-12-18T09:32:51;6.40;;;5.40;;
40074;SDS011;26529;51.530;11.754;2022-12-18T09:35:16;9.82;;;6.00;;
40074;SDS011;26529;51.530;11.754;2022-12-18T09:37:42;9.10;;;6.70;;
40074;SDS011;26529;51.530;11.754;2022-12-18T09:40:13;9.65;;;6.80;;
40074;SDS011;26529;51.530;11.754;2022-12-18T09:42:41;10.02;;;7.05;;
40074;SDS011;26529;51.530;11.754;2022-12-18T09:45:14;9.55;;;7.03;;
40074;SDS011;26529;51.530;11.754;2022-12-18T09:47:41;8.57;;;6.40;;
40074;SDS011;26529;51.530;11.754;2022-12-18T09:50:22;10.20;;;6.85;;
40074;SDS011;26529;51.530;11.754;2022-12-18T09:52:53;8.98;;;6.90;;
40074;SDS011;26529;51.530;11.754;2022-12-18T09:55:24;10.27;;;6.68;;
40074;SDS011;26529;51.530;11.754;2022-12-18T09:57:56;8.57;;;6.53;;
40074;SDS011;26529;51.530;11.754;2022-12-18T10:00:26;9.88;;;6.75;;
40074;SDS011;26529;51.530;11.754;2022-12-18T10:02:52;10.10;;;6.57;;
40074;SDS011;26529;51.530;11.754;2022-12-18T10:05:28;8.50;;;7.28;;
40074;SDS011;26529;51.530;11.754;2022-12-18T10:08:17;9.48;;;6.32;;
40074;SDS011;26529;51.530;11.754;2022-12-18T10:10:48;9.77;;;6.60;;
40074;SDS011;26529;51.530;11.754;2022-12-18T10:16:18;8.43;;;6.57;;
40074;SDS011;26529;51.530;11.754;2022-12-18T10:24:59;10.20;;;7.07;;
40074;SDS011;26529;51.530;11.754;2022-12-18T10:27:29;8.55;;;6.97;;
40074;SDS011;26529;51.530;11.754;2022-12-18T10:29:55;9.07;;;6.43;;
40074;SDS011;26529;51.530;11.754;2022-12-18T10:32:26;8.50;;;7.20;;
40074;SDS011;26529;51.530;11.754;2022-12-18T10:34:54;10.30;;;7.38;;
40074;SDS011;26529;51.530;11.754;2022-12-18T10:37:24;10.20;;;6.80;;
40074;SDS011;26529;51.530;11.754;2022-12-18T10:40:13;11.63;;;7.47;;
40074;SDS011;26529;51.530;11.754;2022-12-18T10:42:40;6.80;;;5.82;;
40074;SDS011;26529;51.530;11.754;2022-12-18T10:45:11;13.02;;;8.63;;
40074;SDS011;26529;51.530;11.754;2022-12-18T10:47:43;13.77;;;10.82;;
40074;SDS011;26529;51.530;11.754;2022-12-18T10:50:45;23.38;;;14.32;;
40074;SDS011;26529;51.530;11.754;2022-12-18T10:53:04;21.15;;;16.83;;
40074;SDS011;26529;51.530;11.754;2022-12-18T10:55:34;23.60;;;19.42;;
40074;SDS011;26529;51.530;11.754;2022-12-18T11:03:43;25.65;;;20.90;;
40074;SDS011;26529;51.530;11.754;2022-12-18T11:06:12;28.75;;;22.23;;
40074;SDS011;26529;51.530;11.754;2022-12-18T11:08:40;24.60;;;20.23;;
40074;SDS011;26529;51.530;11.754;2022-12-18T11:11:14;22.08;;;19.73;;
40074;SDS011;26529;51.530;11.754;2022-12-18T11:16:25;21.88;;;19.13;;
40074;SDS011;26529;51.530;11.754;2022-12-18T11:18:51;25.27;;;19.25;;
40074;SDS011;26529;51.530;11.754;2022-12-18T11:21:17;24.48;;;19.45;;
40074;SDS011;26529;51.530;11.754;2022-12-18T11:23:49;23.73;;;19.35;;
40074;SDS011;26529;51.530;11.754;2022-12-18T11:26:17;24.55;;;19.05;;
40074;SDS011;26529;51.530;11.754;2022-12-18T11:28:47;23.70;;;19.92;;
40074;SDS011;26529;51.530;11.754;2022-12-18T11:36:39;24.80;;;19.27;;
40074;SDS011;26529;51.530;11.754;2022-12-18T11:41:54;20.55;;;18.45;;
40074;SDS011;26529;51.530;11.754;2022-12-18T11:44:36;24.25;;;20.00;;
40074;SDS011;26529;51.530;11.754;2022-12-18T11:47:19;24.52;;;18.55;;
40074;SDS011;26529;51.530;11.754;2022-12-18T11:49:53;23.15;;;18.77;;
40074;SDS011;26529;51.530;11.754;2022-12-18T11:52:31;26.30;;;20.38;;
40074;SDS011;26529;51.530;11.754;2022-12-18T11:55:05;21.23;;;17.75;;
40074;SDS011;26529;51.530;11.754;2022-12-18T12:10:54;29.25;;;24.73;;
40074;SDS011;26529;51.530;11.754;2022-12-18T12:23:51;29.58;;;22.08;;
40074;SDS011;26529;51.530;11.754;2022-12-18T12:26:40;30.63;;;23.23;;
40074;SDS011;26529;51.530;11.754;2022-12-18T12:40:19;30.98;;;21.85;;
40074;SDS011;26529;51.530;11.754;2022-12-18T12:42:51;29.35;;;21.25;;
40074;SDS011;26529;51.530;11.754;2022-12-18T12:48:17;28.17;;;21.95;;
40074;SDS011;26529;51.530;11.754;2022-12-18T12:50:50;29.65;;;21.42;;
40074;SDS011;26529;51.530;11.754;2022-12-18T12:53:21;29.35;;;21.10;;
40074;SDS011;26529;51.530;11.754;2022-12-18T12:55:50;30.33;;;20.90;;
40074;SDS011;26529;51.530;11.754;2022-12-18T12:58:21;27.83;;;21.98;;
40074;SDS011;26529;51.530;11.754;2022-12-18T13:09:00;28.05;;;20.13;;
40074;SDS011;26529;51.530;11.754;2022-12-18T13:11:31;29.40;;;20.50;;
40074;SDS011;26529;51.530;11.754;2022-12-18T13:14:20;29.95;;;20.23;;
40074;SDS011;26529;51.530;11.754;2022-12-18T13:19:44;29.75;;;19.60;;
40074;SDS011;26529;51.530;11.754;2022-12-18T13:22:28;31.08;;;20.42;;
40074;SDS011;26529;51.530;11.754;2022-12-18T13:24:59;26.88;;;20.02;;
40074;SDS011;26529;51.530;11.754;2022-12-18T13:33:39;33.17;;;21.23;;
40074;SDS011;26529;51.530;11.754;2022-12-18T13:38:24;26.95;;;17.90;;
40074;SDS011;26529;51.530;11.754;2022-12-18T13:40:58;29.33;;;19.70;;
40074;SDS011;26529;51.530;11.754;2022-12-18T13:43:32;26.58;;;18.40;;
40074;SDS011;26529;51.530;11.754;2022-12-18T13:49:16;28.33;;;18.88;;
40074;SDS011;26529;51.530;11.754;2022-12-18T13:51:42;30.30;;;18.40;;
40074;SDS011;26529;51.530;11.754;2022-12-18T13:54:17;35.00;;;19.23;;
40074;SDS011;26529;51.530;11.754;2022-12-18T14:01:50;30.85;;;18.83;;
40074;SDS011;26529;51.530;11.754;2022-12-18T14:06:46;29.60;;;18.40;;
40074;SDS011;26529;51.530;11.754;2022-12-18T14:09:13;31.73;;;19.17;;
40074;SDS011;26529;51.530;11.754;2022-12-18T14:11:45;29.83;;;18.60;;
40074;SDS011;26529;51.530;11.754;2022-12-18T14:14:13;28.48;;;17.52;;
40074;SDS011;26529;51.530;11.754;2022-12-18T14:16:41;33.70;;;18.60;;
40074;SDS011;26529;51.530;11.754;2022-12-18T14:19:14;26.13;;;17.70;;
40074;SDS011;26529;51.530;11.754;2022-12-18T14:21:45;30.55;;;17.08;;
40074;SDS011;26529;51.530;11.754;2022-12-18T14:24:19;26.55;;;17.58;;
40074;SDS011;26529;51.530;11.754;2022-12-18T14:26:47;27.80;;;18.17;;
40074;SDS011;26529;51.530;11.754;2022-12-18T14:29:27;26.15;;;17.30;;
40074;SDS011;26529;51.530;11.754;2022-12-18T14:32:04;27.65;;;16.88;;
40074;SDS011;26529;51.530;11.754;2022-12-18T14:34:30;27.45;;;17.17;;
40074;SDS011;26529;51.530;11.754;2022-12-18T14:36:56;26.58;;;16.25;;
40074;SDS011;26529;51.530;11.754;2022-12-18T14:39:21;24.25;;;15.95;;
40074;SDS011;26529;51.530;11.754;2022-12-18T14:41:50;23.92;;;16.50;;
40074;SDS011;26529;51.530;11.754;2022-12-18T14:44:17;24.90;;;16.13;;
40074;SDS011;26529;51.530;11.754;2022-12-18T14:46:43;27.75;;;16.02;;
40074;SDS011;26529;51.530;11.754;2022-12-18T14:52:05;23.08;;;15.65;;
40074;SDS011;26529;51.530;11.754;2022-12-18T14:54:45;22.40;;;14.40;;
40074;SDS011;26529;51.530;11.754;2022-12-18T14:57:21;26.88;;;15.65;;
40074;SDS011;26529;51.530;11.754;2022-12-18T14:59:49;21.10;;;15.32;;
40074;SDS011;26529;51.530;11.754;2022-12-18T15:02:20;21.33;;;15.48;;
40074;SDS011;26529;51.530;11.754;2022-12-18T15:04:58;22.55;;;14.68;;
40074;SDS011;26529;51.530;11.754;2022-12-18T15:07:40;23.05;;;15.02;;
40074;SDS011;26529;51.530;11.754;2022-12-18T15:10:17;23.13;;;15.07;;
40074;SDS011;26529;51.530;11.754;2022-12-18T15:18:03;23.05;;;14.95;;
40074;SDS011;26529;51.530;11.754;2022-12-18T15:20:32;26.65;;;15.45;;
40074;SDS011;26529;51.530;11.754;2022-12-18T15:23:12;22.70;;;13.65;;
40074;SDS011;26529;51.530;11.754;2022-12-18T15:25:59;19.90;;;13.18;;
40074;SDS011;26529;51.530;11.754;2022-12-18T15:28:37;20.55;;;14.77;;
40074;SDS011;26529;51.530;11.754;2022-12-18T15:31:17;21.02;;;14.20;;
40074;SDS011;26529;51.530;11.754;2022-12-18T15:36:17;22.02;;;13.65;;
40074;SDS011;26529;51.530;11.754;2022-12-18T15:38:46;24.25;;;14.90;;
40074;SDS011;26529;51.530;11.754;2022-12-18T15:41:13;21.88;;;13.35;;
40074;SDS011;26529;51.530;11.754;2022-12-18T15:43:40;20.75;;;13.52;;
40074;SDS011;26529;51.530;11.754;2022-12-18T15:46:09;18.52;;;13.43;;
40074;SDS011;26529;51.530;11.754;2022-12-18T15:48:39;22.15;;;14.10;;
40074;SDS011;26529;51.530;11.754;2022-12-18T15:53:59;21.58;;;13.85;;
40074;SDS011;26529;51.530;11.754;2022-12-18T15:56:31;23.27;;;13.98;;
40074;SDS011;26529;51.530;11.754;2022-12-18T15:59:16;20.83;;;13.73;;
40074;SDS011;26529;51.530;11.754;2022-12-18T16:01:44;16.95;;;12.73;;
40074;SDS011;26529;51.530;11.754;2022-12-18T16:04:12;20.55;;;13.25;;
40074;SDS011;26529;51.530;11.754;2022-12-18T16:06:39;19.45;;;12.68;;
40074;SDS011;26529;51.530;11.754;2022-12-18T16:09:05;19.88;;;13.35;;
40074;SDS011;26529;51.530;11.754;2022-12-18T16:11:31;19.67;;;13.30;;
40074;SDS011;26529;51.530;11.754;2022-12-18T16:14:06;19.67;;;12.25;;
40074;SDS011;26529;51.530;11.754;2022-12-18T16:16:40;15.90;;;12.02;;
40074;SDS011;26529;51.530;11.754;2022-12-18T16:19:06;18.23;;;13.05;;
40074;SDS011;26529;51.530;11.754;2022-12-18T16:21:32;19.27;;;12.88;;
40074;SDS011;26529;51.530;11.754;2022-12-18T16:23:58;18.85;;;12.77;;
40074;SDS011;26529;51.530;11.754;2022-12-18T16:26:23;18.85;;;13.23;;
40074;SDS011;26529;51.530;11.754;2022-12-18T16:28:49;18.73;;;11.93;;
40074;SDS011;26529;51.530;11.754;2022-12-18T16:31:14;19.10;;;12.02;;
40074;SDS011;26529;51.530;11.754;2022-12-18T16:33:40;20.48;;;11.73;;
40074;SDS011;26529;51.530;11.754;2022-12-18T16:36:06;19.30;;;12.18;;
40074;SDS011;26529;51.530;11.754;2022-12-18T16:38:33;19.10;;;12.35;;
40074;SDS011;26529;51.530;11.754;2022-12-18T16:40:58;22.88;;;11.70;;
40074;SDS011;26529;51.530;11.754;2022-12-18T16:43:43;18.88;;;11.38;;
40074;SDS011;26529;51.530;11.754;2022-12-18T16:46:08;15.73;;;11.65;;
40074;SDS011;26529;51.530;11.754;2022-12-18T16:48:34;16.27;;;10.95;;